sensor_id;sensor_type;location;lat;lon;timestamp;P1;durP1;ratioP1;P2;durP2;ratioP2
38972;SDS011;25333;50.762;4.470;2022-10-04T00:00:49;8.30;;;4.07;;
38972;SDS011;25333;50.762;4.470;2022-10-04T00:05:52;7.20;;;3.85;;
38972;SDS011;25333;50.762;4.470;2022-10-04T00:11:00;7.30;;;4.53;;
38972;SDS011;25333;50.762;4.470;2022-10-04T00:13:51;6.15;;;3.67;;
38972;SDS011;25333;50.762;4.470;2022-10-04T00:16:43;5.32;;;4.15;;
38972;SDS011;25333;50.762;4.470;2022-10-04T00:24:59;7.05;;;4.30;;
38972;SDS011;25333;50.762;4.470;2022-10-04T00:27:27;5.40;;;3.85;;
38972;SDS011;25333;50.762;4.470;2022-10-04T00:40:32;6.07;;;3.35;;
38972;SDS011;25333;50.762;4.470;2022-10-04T00:43:17;5.30;;;3.40;;
38972;SDS011;25333;50.762;4.470;2022-10-04T00:45:51;5.13;;;3.77;;
38972;SDS011;25333;50.762;4.470;2022-10-04T00:54:28;3.78;;;3.08;;
38972;SDS011;25333;50.762;4.470;2022-10-04T00:57:11;5.45;;;3.05;;
38972;SDS011;25333;50.762;4.470;2022-10-04T00:59:42;4.05;;;3.08;;
38972;SDS011;25333;50.762;4.470;2022-10-04T01:02:22;3.93;;;3.20;;
38972;SDS011;25333;50.762;4.470;2022-10-04T01:07:36;4.43;;;3.20;;
38972;SDS011;25333;50.762;4.470;2022-10-04T01:10:07;4.78;;;3.45;;
38972;SDS011;25333;50.762;4.470;2022-10-04T01:15:15;8.35;;;3.65;;
38972;SDS011;25333;50.762;4.470;2022-10-04T01:18:14;4.72;;;3.05;;
38972;SDS011;25333;50.762;4.470;2022-10-04T01:23:15;4.55;;;3.22;;
38972;SDS011;25333;50.762;4.470;2022-10-04T01:28:53;5.28;;;2.88;;
38972;SDS011;25333;50.762;4.470;2022-10-04T01:31:41;5.57;;;3.03;;
38972;SDS011;25333;50.762;4.470;2022-10-04T01:34:15;3.20;;;2.60;;
38972;SDS011;25333;50.762;4.470;2022-10-04T01:36:43;4.53;;;3.38;;
38972;SDS011;25333;50.762;4.470;2022-10-04T01:39:11;5.45;;;3.00;;
38972;SDS011;25333;50.762;4.470;2022-10-04T01:41:53;3.25;;;2.53;;
38972;SDS011;25333;50.762;4.470;2022-10-04T01:44:29;5.22;;;3.17;;
38972;SDS011;25333;50.762;4.470;2022-10-04T01:47:20;3.97;;;3.00;;
38972;SDS011;25333;50.762;4.470;2022-10-04T01:50:04;4.68;;;3.03;;
38972;SDS011;25333;50.762;4.470;2022-10-04T01:52:43;4.00;;;2.45;;
38972;SDS011;25333;50.762;4.470;2022-10-04T01:55:13;5.03;;;3.00;;
38972;SDS011;25333;50.762;4.470;2022-10-04T01:57:45;4.03;;;2.88;;
38972;SDS011;25333;50.762;4.470;2022-10-04T02:00:14;4.53;;;3.10;;
38972;SDS011;25333;50.762;4.470;2022-10-04T02:02:57;4.63;;;3.15;;
38972;SDS011;25333;50.762;4.470;2022-10-04T02:05:35;4.63;;;3.50;;
38972;SDS011;25333;50.762;4.470;2022-10-04T02:08:10;4.20;;;3.20;;
38972;SDS011;25333;50.762;4.470;2022-10-04T02:10:40;5.75;;;3.58;;
38972;SDS011;25333;50.762;4.470;2022-10-04T02:13:07;4.68;;;3.50;;
38972;SDS011;25333;50.762;4.470;2022-10-04T02:15:35;6.10;;;3.28;;
38972;SDS011;25333;50.762;4.470;2022-10-04T02:18:04;4.70;;;3.20;;
38972;SDS011;25333;50.762;4.470;2022-10-04T02:20:44;6.97;;;4.03;;
38972;SDS011;25333;50.762;4.470;2022-10-04T02:23:15;6.03;;;3.45;;
38972;SDS011;25333;50.762;4.470;2022-10-04T02:25:42;4.70;;;3.43;;
38972;SDS011;25333;50.762;4.470;2022-10-04T02:28:08;5.97;;;4.18;;
38972;SDS011;25333;50.762;4.470;2022-10-04T02:30:36;7.30;;;3.83;;
38972;SDS011;25333;50.762;4.470;2022-10-04T02:33:02;4.22;;;3.13;;
38972;SDS011;25333;50.762;4.470;2022-10-04T02:35:29;4.40;;;3.53;;
38972;SDS011;25333;50.762;4.470;2022-10-04T02:38:04;5.88;;;3.47;;
38972;SDS011;25333;50.762;4.470;2022-10-04T02:40:33;5.45;;;3.67;;
38972;SDS011;25333;50.762;4.470;2022-10-04T02:43:15;4.33;;;3.17;;
38972;SDS011;25333;50.762;4.470;2022-10-04T02:48:51;7.97;;;4.05;;
38972;SDS011;25333;50.762;4.470;2022-10-04T02:51:36;5.57;;;4.00;;
38972;SDS011;25333;50.762;4.470;2022-10-04T02:54:50;4.97;;;3.97;;
38972;SDS011;25333;50.762;4.470;2022-10-04T02:57:16;6.18;;;3.58;;
38972;SDS011;25333;50.762;4.470;2022-10-04T02:59:44;6.30;;;3.63;;
38972;SDS011;25333;50.762;4.470;2022-10-04T03:02:21;5.53;;;4.53;;
38972;SDS011;25333;50.762;4.470;2022-10-04T03:04:48;6.25;;;4.30;;
38972;SDS011;25333;50.762;4.470;2022-10-04T03:07:17;5.20;;;3.85;;
38972;SDS011;25333;50.762;4.470;2022-10-04T03:09:43;6.10;;;4.10;;
38972;SDS011;25333;50.762;4.470;2022-10-04T03:12:10;5.47;;;3.50;;
38972;SDS011;25333;50.762;4.470;2022-10-04T03:14:37;4.90;;;3.65;;
38972;SDS011;25333;50.762;4.470;2022-10-04T03:17:04;7.05;;;4.15;;
38972;SDS011;25333;50.762;4.470;2022-10-04T03:19:31;4.38;;;3.60;;
38972;SDS011;25333;50.762;4.470;2022-10-04T03:22:00;5.18;;;3.80;;
38972;SDS011;25333;50.762;4.470;2022-10-04T03:25:04;5.45;;;4.18;;
38972;SDS011;25333;50.762;4.470;2022-10-04T03:27:30;4.85;;;3.75;;
38972;SDS011;25333;50.762;4.470;2022-10-04T03:29:58;6.50;;;4.20;;
38972;SDS011;25333;50.762;4.470;2022-10-04T03:32:25;6.70;;;3.88;;
38972;SDS011;25333;50.762;4.470;2022-10-04T03:34:55;4.20;;;3.65;;
38972;SDS011;25333;50.762;4.470;2022-10-04T03:37:22;6.70;;;4.18;;
38972;SDS011;25333;50.762;4.470;2022-10-04T03:39:50;5.88;;;3.45;;
38972;SDS011;25333;50.762;4.470;2022-10-04T03:42:19;4.35;;;3.60;;
38972;SDS011;25333;50.762;4.470;2022-10-04T03:44:49;4.93;;;3.95;;
38972;SDS011;25333;50.762;4.470;2022-10-04T03:47:25;4.68;;;4.05;;
38972;SDS011;25333;50.762;4.470;2022-10-04T03:49:57;6.00;;;4.20;;
38972;SDS011;25333;50.762;4.470;2022-10-04T03:52:28;5.05;;;4.35;;
38972;SDS011;25333;50.762;4.470;2022-10-04T03:54:59;6.35;;;4.40;;
38972;SDS011;25333;50.762;4.470;2022-10-04T03:57:27;5.45;;;4.18;;
38972;SDS011;25333;50.762;4.470;2022-10-04T03:59:54;7.15;;;4.22;;
38972;SDS011;25333;50.762;4.470;2022-10-04T04:02:29;6.93;;;4.28;;
38972;SDS011;25333;50.762;4.470;2022-10-04T04:05:14;6.55;;;4.70;;
38972;SDS011;25333;50.762;4.470;2022-10-04T04:07:46;6.50;;;4.35;;
38972;SDS011;25333;50.762;4.470;2022-10-04T04:10:36;6.25;;;4.93;;
38972;SDS011;25333;50.762;4.470;2022-10-04T04:15:37;8.13;;;4.72;;
38972;SDS011;25333;50.762;4.470;2022-10-04T04:18:11;6.72;;;4.38;;
38972;SDS011;25333;50.762;4.470;2022-10-04T04:20:49;5.90;;;4.03;;
38972;SDS011;25333;50.762;4.470;2022-10-04T04:25:57;5.65;;;4.28;;
38972;SDS011;25333;50.762;4.470;2022-10-04T04:28:39;6.17;;;3.93;;
38972;SDS011;25333;50.762;4.470;2022-10-04T04:31:09;6.28;;;3.90;;
38972;SDS011;25333;50.762;4.470;2022-10-04T04:34:01;5.53;;;4.30;;
38972;SDS011;25333;50.762;4.470;2022-10-04T04:36:31;5.47;;;3.97;;
38972;SDS011;25333;50.762;4.470;2022-10-04T04:39:08;7.80;;;4.55;;
38972;SDS011;25333;50.762;4.470;2022-10-04T04:41:57;6.75;;;4.45;;
38972;SDS011;25333;50.762;4.470;2022-10-04T04:44:30;5.30;;;4.15;;
38972;SDS011;25333;50.762;4.470;2022-10-04T04:46:56;9.60;;;4.85;;
38972;SDS011;25333;50.762;4.470;2022-10-04T04:49:24;7.20;;;4.80;;
38972;SDS011;25333;50.762;4.470;2022-10-04T04:51:53;5.13;;;4.20;;
38972;SDS011;25333;50.762;4.470;2022-10-04T04:54:22;5.05;;;4.35;;
38972;SDS011;25333;50.762;4.470;2022-10-04T04:56:50;7.90;;;4.40;;
38972;SDS011;25333;50.762;4.470;2022-10-04T04:59:19;5.88;;;4.50;;
38972;SDS011;25333;50.762;4.470;2022-10-04T05:01:47;6.68;;;4.22;;
38972;SDS011;25333;50.762;4.470;2022-10-04T05:04:15;5.95;;;3.85;;
38972;SDS011;25333;50.762;4.470;2022-10-04T05:06:44;6.07;;;4.13;;
38972;SDS011;25333;50.762;4.470;2022-10-04T05:09:23;5.88;;;4.70;;
38972;SDS011;25333;50.762;4.470;2022-10-04T05:11:52;7.28;;;4.00;;
38972;SDS011;25333;50.762;4.470;2022-10-04T05:14:21;5.75;;;4.65;;
38972;SDS011;25333;50.762;4.470;2022-10-04T05:16:50;7.53;;;4.87;;
38972;SDS011;25333;50.762;4.470;2022-10-04T05:19:18;5.00;;;4.18;;
38972;SDS011;25333;50.762;4.470;2022-10-04T05:21:56;5.45;;;4.20;;
38972;SDS011;25333;50.762;4.470;2022-10-04T05:24:31;7.07;;;4.68;;
38972;SDS011;25333;50.762;4.470;2022-10-04T05:27:02;5.72;;;5.00;;
38972;SDS011;25333;50.762;4.470;2022-10-04T05:30:36;6.78;;;4.22;;
38972;SDS011;25333;50.762;4.470;2022-10-04T05:35:27;7.73;;;4.40;;
38972;SDS011;25333;50.762;4.470;2022-10-04T05:40:56;4.85;;;3.58;;
38972;SDS011;25333;50.762;4.470;2022-10-04T05:43:37;6.15;;;5.40;;
38972;SDS011;25333;50.762;4.470;2022-10-04T05:48:44;5.55;;;4.88;;
38972;SDS011;25333;50.762;4.470;2022-10-04T05:51:23;7.10;;;4.93;;
38972;SDS011;25333;50.762;4.470;2022-10-04T05:53:51;7.35;;;5.20;;
38972;SDS011;25333;50.762;4.470;2022-10-04T06:12:07;6.15;;;4.43;;
38972;SDS011;25333;50.762;4.470;2022-10-04T06:14:45;5.75;;;4.78;;
38972;SDS011;25333;50.762;4.470;2022-10-04T06:20:08;7.88;;;4.53;;
38972;SDS011;25333;50.762;4.470;2022-10-04T06:22:59;6.70;;;4.65;;
38972;SDS011;25333;50.762;4.470;2022-10-04T06:25:31;6.55;;;4.70;;
38972;SDS011;25333;50.762;4.470;2022-10-04T06:28:13;5.97;;;4.53;;
38972;SDS011;25333;50.762;4.470;2022-10-04T06:33:45;6.03;;;5.35;;
38972;SDS011;25333;50.762;4.470;2022-10-04T06:44:47;5.70;;;4.32;;
38972;SDS011;25333;50.762;4.470;2022-10-04T06:47:43;6.35;;;4.60;;
38972;SDS011;25333;50.762;4.470;2022-10-04T06:50:41;10.75;;;5.43;;
38972;SDS011;25333;50.762;4.470;2022-10-04T06:53:25;8.52;;;5.38;;
38972;SDS011;25333;50.762;4.470;2022-10-04T06:56:25;7.45;;;5.55;;
38972;SDS011;25333;50.762;4.470;2022-10-04T07:02:18;8.20;;;5.82;;
38972;SDS011;25333;50.762;4.470;2022-10-04T07:04:49;10.98;;;5.95;;
38972;SDS011;25333;50.762;4.470;2022-10-04T07:07:32;8.80;;;5.35;;
38972;SDS011;25333;50.762;4.470;2022-10-04T07:10:08;8.70;;;5.43;;
38972;SDS011;25333;50.762;4.470;2022-10-04T07:12:41;7.07;;;5.13;;
38972;SDS011;25333;50.762;4.470;2022-10-04T07:15:18;8.45;;;5.68;;
38972;SDS011;25333;50.762;4.470;2022-10-04T07:17:48;7.00;;;4.85;;
38972;SDS011;25333;50.762;4.470;2022-10-04T07:20:24;8.63;;;4.97;;
38972;SDS011;25333;50.762;4.470;2022-10-04T07:23:02;10.43;;;5.53;;
38972;SDS011;25333;50.762;4.470;2022-10-04T07:25:42;8.45;;;5.65;;
38972;SDS011;25333;50.762;4.470;2022-10-04T07:28:19;8.38;;;5.82;;
38972;SDS011;25333;50.762;4.470;2022-10-04T07:31:11;10.35;;;6.28;;
38972;SDS011;25333;50.762;4.470;2022-10-04T07:33:51;8.50;;;5.22;;
38972;SDS011;25333;50.762;4.470;2022-10-04T07:36:45;10.18;;;5.90;;
38972;SDS011;25333;50.762;4.470;2022-10-04T07:39:32;9.55;;;5.97;;
38972;SDS011;25333;50.762;4.470;2022-10-04T07:44:44;10.73;;;5.50;;
38972;SDS011;25333;50.762;4.470;2022-10-04T07:47:22;9.70;;;5.82;;
38972;SDS011;25333;50.762;4.470;2022-10-04T07:49:51;10.40;;;6.93;;
38972;SDS011;25333;50.762;4.470;2022-10-04T07:55:17;11.53;;;7.17;;
38972;SDS011;25333;50.762;4.470;2022-10-04T07:57:57;13.88;;;6.00;;
38972;SDS011;25333;50.762;4.470;2022-10-04T08:00:38;9.50;;;6.00;;
38972;SDS011;25333;50.762;4.470;2022-10-04T08:12:03;10.07;;;6.65;;
38972;SDS011;25333;50.762;4.470;2022-10-04T08:39:00;11.35;;;6.55;;
38972;SDS011;25333;50.762;4.470;2022-10-04T09:06:13;9.82;;;4.60;;
38972;SDS011;25333;50.762;4.470;2022-10-04T09:11:43;9.60;;;5.00;;
38972;SDS011;25333;50.762;4.470;2022-10-04T09:25:10;8.77;;;4.57;;
38972;SDS011;25333;50.762;4.470;2022-10-04T09:30:41;9.38;;;4.63;;
38972;SDS011;25333;50.762;4.470;2022-10-04T09:39:00;8.90;;;5.82;;
38972;SDS011;25333;50.762;4.470;2022-10-04T09:50:26;7.53;;;4.27;;
38972;SDS011;25333;50.762;4.470;2022-10-04T09:53:04;7.45;;;4.15;;
38972;SDS011;25333;50.762;4.470;2022-10-04T10:18:10;6.85;;;3.33;;
38972;SDS011;25333;50.762;4.470;2022-10-04T10:26:24;6.80;;;3.53;;
38972;SDS011;25333;50.762;4.470;2022-10-04T10:35:25;7.30;;;3.92;;
38972;SDS011;25333;50.762;4.470;2022-10-04T10:38:22;7.22;;;4.28;;
38972;SDS011;25333;50.762;4.470;2022-10-04T10:46:19;7.13;;;3.75;;
38972;SDS011;25333;50.762;4.470;2022-10-04T11:00:22;7.60;;;3.17;;
38972;SDS011;25333;50.762;4.470;2022-10-04T11:05:55;9.00;;;3.63;;
38972;SDS011;25333;50.762;4.470;2022-10-04T11:23:11;5.93;;;3.58;;
38972;SDS011;25333;50.762;4.470;2022-10-04T11:28:27;6.30;;;3.15;;
38972;SDS011;25333;50.762;4.470;2022-10-04T11:51:10;4.13;;;2.28;;
38972;SDS011;25333;50.762;4.470;2022-10-04T12:11:11;4.45;;;1.77;;
38972;SDS011;25333;50.762;4.470;2022-10-04T12:22:50;8.48;;;2.63;;
38972;SDS011;25333;50.762;4.470;2022-10-04T12:33:42;6.88;;;2.65;;
38972;SDS011;25333;50.762;4.470;2022-10-04T12:36:29;7.97;;;3.20;;
38972;SDS011;25333;50.762;4.470;2022-10-04T12:42:22;5.35;;;2.63;;
38972;SDS011;25333;50.762;4.470;2022-10-04T12:50:52;5.00;;;2.30;;
38972;SDS011;25333;50.762;4.470;2022-10-04T13:04:26;7.20;;;2.47;;
38972;SDS011;25333;50.762;4.470;2022-10-04T13:15:29;3.17;;;1.85;;
38972;SDS011;25333;50.762;4.470;2022-10-04T13:18:23;4.35;;;1.92;;
38972;SDS011;25333;50.762;4.470;2022-10-04T13:24:09;4.03;;;1.83;;
38972;SDS011;25333;50.762;4.470;2022-10-04T13:27:11;5.50;;;2.90;;
38972;SDS011;25333;50.762;4.470;2022-10-04T13:29:57;6.63;;;2.22;;
38972;SDS011;25333;50.762;4.470;2022-10-04T13:35:48;3.90;;;2.22;;
38972;SDS011;25333;50.762;4.470;2022-10-04T13:38:35;3.30;;;1.88;;
38972;SDS011;25333;50.762;4.470;2022-10-04T13:41:31;3.83;;;2.10;;
38972;SDS011;25333;50.762;4.470;2022-10-04T14:07:35;4.07;;;2.33;;
38972;SDS011;25333;50.762;4.470;2022-10-04T14:36:00;4.20;;;2.30;;
38972;SDS011;25333;50.762;4.470;2022-10-04T14:42:02;5.28;;;2.10;;
38972;SDS011;25333;50.762;4.470;2022-10-04T14:50:16;4.35;;;2.10;;
38972;SDS011;25333;50.762;4.470;2022-10-04T14:53:02;3.58;;;1.90;;
38972;SDS011;25333;50.762;4.470;2022-10-04T14:58:45;4.57;;;2.03;;
38972;SDS011;25333;50.762;4.470;2022-10-04T15:01:21;3.08;;;1.45;;
38972;SDS011;25333;50.762;4.470;2022-10-04T15:03:56;3.90;;;2.05;;
38972;SDS011;25333;50.762;4.470;2022-10-04T15:17:42;3.13;;;1.45;;
38972;SDS011;25333;50.762;4.470;2022-10-04T15:31:28;3.08;;;1.63;;
38972;SDS011;25333;50.762;4.470;2022-10-04T15:34:29;4.07;;;1.70;;
38972;SDS011;25333;50.762;4.470;2022-10-04T15:42:38;2.55;;;1.30;;
38972;SDS011;25333;50.762;4.470;2022-10-04T16:00:02;2.83;;;1.58;;
38972;SDS011;25333;50.762;4.470;2022-10-04T16:02:45;2.50;;;1.08;;
38972;SDS011;25333;50.762;4.470;2022-10-04T16:05:48;3.78;;;2.10;;
38972;SDS011;25333;50.762;4.470;2022-10-04T16:08:36;4.35;;;1.48;;
38972;SDS011;25333;50.762;4.470;2022-10-04T16:11:35;3.35;;;1.80;;
38972;SDS011;25333;50.762;4.470;2022-10-04T16:14:34;2.95;;;1.70;;
38972;SDS011;25333;50.762;4.470;2022-10-04T16:17:41;4.35;;;1.73;;
38972;SDS011;25333;50.762;4.470;2022-10-04T16:20:35;2.80;;;1.73;;
38972;SDS011;25333;50.762;4.470;2022-10-04T16:23:31;4.88;;;2.42;;
38972;SDS011;25333;50.762;4.470;2022-10-04T16:26:02;3.30;;;1.60;;
38972;SDS011;25333;50.762;4.470;2022-10-04T16:33:59;3.40;;;1.70;;
38972;SDS011;25333;50.762;4.470;2022-10-04T16:36:50;5.30;;;1.45;;
38972;SDS011;25333;50.762;4.470;2022-10-04T16:39:35;3.08;;;1.95;;
38972;SDS011;25333;50.762;4.470;2022-10-04T16:56:14;4.20;;;2.10;;
38972;SDS011;25333;50.762;4.470;2022-10-04T16:58:58;3.33;;;1.40;;
38972;SDS011;25333;50.762;4.470;2022-10-04T17:21:00;6.67;;;4.30;;
38972;SDS011;25333;50.762;4.470;2022-10-04T17:28:43;6.97;;;3.55;;
38972;SDS011;25333;50.762;4.470;2022-10-04T17:34:16;5.53;;;4.28;;
38972;SDS011;25333;50.762;4.470;2022-10-04T17:37:37;4.85;;;3.22;;
38972;SDS011;25333;50.762;4.470;2022-10-04T17:42:48;8.00;;;4.03;;
38972;SDS011;25333;50.762;4.470;2022-10-04T17:51:02;5.65;;;3.38;;
38972;SDS011;25333;50.762;4.470;2022-10-04T18:00:17;3.80;;;2.17;;
38972;SDS011;25333;50.762;4.470;2022-10-04T18:03:08;4.85;;;2.35;;
38972;SDS011;25333;50.762;4.470;2022-10-04T18:13:42;4.82;;;2.30;;
38972;SDS011;25333;50.762;4.470;2022-10-04T18:19:30;4.20;;;2.10;;
38972;SDS011;25333;50.762;4.470;2022-10-04T18:22:07;4.00;;;2.47;;
38972;SDS011;25333;50.762;4.470;2022-10-04T18:24:43;4.25;;;2.50;;
38972;SDS011;25333;50.762;4.470;2022-10-04T18:27:24;4.63;;;2.72;;
38972;SDS011;25333;50.762;4.470;2022-10-04T18:32:47;4.45;;;3.17;;
38972;SDS011;25333;50.762;4.470;2022-10-04T18:37:56;7.72;;;4.10;;
38972;SDS011;25333;50.762;4.470;2022-10-04T18:40:32;6.18;;;4.20;;
38972;SDS011;25333;50.762;4.470;2022-10-04T18:42:59;7.45;;;4.68;;
38972;SDS011;25333;50.762;4.470;2022-10-04T18:45:31;7.28;;;3.72;;
38972;SDS011;25333;50.762;4.470;2022-10-04T18:48:36;6.78;;;4.50;;
38972;SDS011;25333;50.762;4.470;2022-10-04T18:51:28;4.80;;;4.30;;
38972;SDS011;25333;50.762;4.470;2022-10-04T18:54:27;5.13;;;4.38;;
38972;SDS011;25333;50.762;4.470;2022-10-04T18:57:08;5.40;;;3.60;;
38972;SDS011;25333;50.762;4.470;2022-10-04T19:02:59;4.80;;;4.13;;
38972;SDS011;25333;50.762;4.470;2022-10-04T19:11:18;5.72;;;3.90;;
38972;SDS011;25333;50.762;4.470;2022-10-04T19:13:51;4.57;;;3.00;;
38972;SDS011;25333;50.762;4.470;2022-10-04T19:16:35;5.55;;;3.35;;
38972;SDS011;25333;50.762;4.470;2022-10-04T19:24:50;5.90;;;4.30;;
38972;SDS011;25333;50.762;4.470;2022-10-04T19:28:01;7.28;;;5.10;;
38972;SDS011;25333;50.762;4.470;2022-10-04T19:47:06;8.50;;;6.25;;
38972;SDS011;25333;50.762;4.470;2022-10-04T19:55:03;9.40;;;6.28;;
38972;SDS011;25333;50.762;4.470;2022-10-04T19:57:50;7.53;;;5.17;;
38972;SDS011;25333;50.762;4.470;2022-10-04T20:00:23;7.45;;;5.50;;
38972;SDS011;25333;50.762;4.470;2022-10-04T20:02:49;6.72;;;4.88;;
38972;SDS011;25333;50.762;4.470;2022-10-04T20:05:16;11.48;;;5.97;;
38972;SDS011;25333;50.762;4.470;2022-10-04T20:07:50;7.40;;;5.10;;
38972;SDS011;25333;50.762;4.470;2022-10-04T20:10:32;7.07;;;5.55;;
38972;SDS011;25333;50.762;4.470;2022-10-04T20:13:04;7.88;;;5.70;;
38972;SDS011;25333;50.762;4.470;2022-10-04T20:15:55;9.30;;;6.53;;
38972;SDS011;25333;50.762;4.470;2022-10-04T20:26:02;9.47;;;5.80;;
38972;SDS011;25333;50.762;4.470;2022-10-04T20:30:57;11.35;;;7.50;;
38972;SDS011;25333;50.762;4.470;2022-10-04T20:36:47;7.95;;;6.35;;
38972;SDS011;25333;50.762;4.470;2022-10-04T20:38:54;8.53;;;6.37;;
38972;SDS011;25333;50.762;4.470;2022-10-04T20:43:57;6.82;;;5.60;;
38972;SDS011;25333;50.762;4.470;2022-10-04T20:46:36;7.55;;;5.72;;
38972;SDS011;25333;50.762;4.470;2022-10-04T20:49:03;9.25;;;6.22;;
38972;SDS011;25333;50.762;4.470;2022-10-04T20:51:45;8.07;;;6.18;;
38972;SDS011;25333;50.762;4.470;2022-10-04T20:54:16;7.03;;;5.82;;
38972;SDS011;25333;50.762;4.470;2022-10-04T20:56:44;8.02;;;6.05;;
38972;SDS011;25333;50.762;4.470;2022-10-04T20:59:12;10.48;;;6.07;;
38972;SDS011;25333;50.762;4.470;2022-10-04T21:01:40;8.30;;;6.32;;
38972;SDS011;25333;50.762;4.470;2022-10-04T21:07:01;9.93;;;6.25;;
38972;SDS011;25333;50.762;4.470;2022-10-04T21:09:29;8.15;;;5.95;;
38972;SDS011;25333;50.762;4.470;2022-10-04T21:11:57;10.18;;;6.40;;
38972;SDS011;25333;50.762;4.470;2022-10-04T21:14:24;7.00;;;5.35;;
38972;SDS011;25333;50.762;4.470;2022-10-04T21:16:55;9.93;;;7.10;;
38972;SDS011;25333;50.762;4.470;2022-10-04T21:21:57;10.15;;;7.20;;
38972;SDS011;25333;50.762;4.470;2022-10-04T21:26:59;8.82;;;6.72;;
38972;SDS011;25333;50.762;4.470;2022-10-04T21:29:24;9.80;;;7.03;;
38972;SDS011;25333;50.762;4.470;2022-10-04T21:31:50;11.35;;;7.25;;
38972;SDS011;25333;50.762;4.470;2022-10-04T21:34:15;10.57;;;6.63;;
38972;SDS011;25333;50.762;4.470;2022-10-04T21:36:41;10.80;;;6.90;;
38972;SDS011;25333;50.762;4.470;2022-10-04T21:39:06;8.00;;;6.30;;
38972;SDS011;25333;50.762;4.470;2022-10-04T21:41:32;9.07;;;6.03;;
38972;SDS011;25333;50.762;4.470;2022-10-04T21:43:57;9.23;;;6.80;;
38972;SDS011;25333;50.762;4.470;2022-10-04T21:46:23;8.20;;;5.65;;
38972;SDS011;25333;50.762;4.470;2022-10-04T21:48:49;9.10;;;6.87;;
38972;SDS011;25333;50.762;4.470;2022-10-04T21:51:14;10.70;;;6.35;;
38972;SDS011;25333;50.762;4.470;2022-10-04T21:53:40;8.20;;;5.68;;
38972;SDS011;25333;50.762;4.470;2022-10-04T21:56:06;13.03;;;6.93;;
38972;SDS011;25333;50.762;4.470;2022-10-04T21:58:32;8.48;;;5.90;;
38972;SDS011;25333;50.762;4.470;2022-10-04T22:00:57;10.30;;;7.07;;
38972;SDS011;25333;50.762;4.470;2022-10-04T22:03:23;8.75;;;6.78;;
38972;SDS011;25333;50.762;4.470;2022-10-04T22:05:49;8.23;;;5.80;;
38972;SDS011;25333;50.762;4.470;2022-10-04T22:08:15;8.95;;;6.25;;
38972;SDS011;25333;50.762;4.470;2022-10-04T22:10:41;10.35;;;6.93;;
38972;SDS011;25333;50.762;4.470;2022-10-04T22:13:07;7.38;;;5.97;;
38972;SDS011;25333;50.762;4.470;2022-10-04T22:15:33;9.73;;;6.70;;
38972;SDS011;25333;50.762;4.470;2022-10-04T22:17:59;9.43;;;6.67;;
38972;SDS011;25333;50.762;4.470;2022-10-04T22:20:24;8.50;;;6.25;;
38972;SDS011;25333;50.762;4.470;2022-10-04T22:22:51;7.82;;;6.35;;
38972;SDS011;25333;50.762;4.470;2022-10-04T22:25:19;12.63;;;6.30;;
38972;SDS011;25333;50.762;4.470;2022-10-04T22:27:47;8.15;;;6.28;;
38972;SDS011;25333;50.762;4.470;2022-10-04T22:30:17;7.63;;;5.82;;
38972;SDS011;25333;50.762;4.470;2022-10-04T22:32:55;6.90;;;5.60;;
38972;SDS011;25333;50.762;4.470;2022-10-04T22:35:22;8.70;;;5.40;;
38972;SDS011;25333;50.762;4.470;2022-10-04T22:37:48;7.63;;;5.80;;
38972;SDS011;25333;50.762;4.470;2022-10-04T22:40:16;8.38;;;5.60;;
38972;SDS011;25333;50.762;4.470;2022-10-04T22:42:53;7.53;;;5.57;;
38972;SDS011;25333;50.762;4.470;2022-10-04T22:47:51;7.45;;;4.85;;
38972;SDS011;25333;50.762;4.470;2022-10-04T22:50:25;8.50;;;5.32;;
38972;SDS011;25333;50.762;4.470;2022-10-04T22:52:56;7.53;;;5.97;;
38972;SDS011;25333;50.762;4.470;2022-10-04T22:55:24;7.22;;;5.30;;
38972;SDS011;25333;50.762;4.470;2022-10-04T22:57:50;7.73;;;5.83;;
38972;SDS011;25333;50.762;4.470;2022-10-04T23:00:15;7.40;;;5.22;;
38972;SDS011;25333;50.762;4.470;2022-10-04T23:02:41;7.97;;;5.10;;
38972;SDS011;25333;50.762;4.470;2022-10-04T23:05:14;9.17;;;5.80;;
38972;SDS011;25333;50.762;4.470;2022-10-04T23:07:41;8.55;;;5.65;;
38972;SDS011;25333;50.762;4.470;2022-10-04T23:10:08;7.95;;;5.70;;
38972;SDS011;25333;50.762;4.470;2022-10-04T23:12:35;7.35;;;5.25;;
38972;SDS011;25333;50.762;4.470;2022-10-04T23:15:02;7.90;;;5.15;;
38972;SDS011;25333;50.762;4.470;2022-10-04T23:17:32;7.57;;;5.95;;
38972;SDS011;25333;50.762;4.470;2022-10-04T23:20:04;8.65;;;5.25;;
38972;SDS011;25333;50.762;4.470;2022-10-04T23:22:37;7.65;;;5.32;;
38972;SDS011;25333;50.762;4.470;2022-10-04T23:25:05;8.93;;;5.10;;
38972;SDS011;25333;50.762;4.470;2022-10-04T23:27:43;6.23;;;4.30;;
38972;SDS011;25333;50.762;4.470;2022-10-04T23:30:13;6.97;;;5.18;;
38972;SDS011;25333;50.762;4.470;2022-10-04T23:32:42;7.50;;;4.72;;
38972;SDS011;25333;50.762;4.470;2022-10-04T23:35:14;6.13;;;4.93;;
38972;SDS011;25333;50.762;4.470;2022-10-04T23:37:50;8.98;;;4.70;;
38972;SDS011;25333;50.762;4.470;2022-10-04T23:40:18;8.18;;;4.75;;
38972;SDS011;25333;50.762;4.470;2022-10-04T23:42:46;9.03;;;4.57;;
38972;SDS011;25333;50.762;4.470;2022-10-04T23:45:16;5.70;;;3.80;;
38972;SDS011;25333;50.762;4.470;2022-10-04T23:47:44;6.35;;;4.38;;
38972;SDS011;25333;50.762;4.470;2022-10-04T23:50:17;8.05;;;4.65;;
38972;SDS011;25333;50.762;4.470;2022-10-04T23:52:49;6.70;;;4.40;;
38972;SDS011;25333;50.762;4.470;2022-10-04T23:55:20;5.93;;;4.37;;
38972;SDS011;25333;50.762;4.470;2022-10-04T23:57:48;6.20;;;3.70;;
